Time;durP1;ratioP1;P1;durP2;ratioP2;P2;SDS_P1;SDS_P2;PMS_P1;PMS_P2;Temp;Humidity;BMP_temperature;BMP_pressure;BME280_temperature;BME280_humidity;BME280_pressure;Samples;Min_cycle;Max_cycle;Signal;HPM_P1;HPM_P2
2023/01/14 00:09:13;;;;;;;32.97;6.47;;;;;;;18.79;46.87;100651.63;20993549;28;20484;-61
2023/01/14 00:19:15;;;;;;;29.52;6.13;;;;;;;18.80;47.26;100619.19;20993859;28;20083;-60
2023/01/14 00:29:21;;;;;;;40.83;5.78;;;;;;;18.79;46.90;100596.19;21000324;28;20399;-61
2023/01/14 00:39:22;;;;;;;57.15;7.03;;;;;;;18.65;46.84;100617.19;21062644;28;20078;-60
2023/01/14 00:49:24;;;;;;;54.25;6.63;;;;;;;18.80;46.44;100602.56;21023680;28;20548;-61
2023/01/14 00:59:25;;;;;;;42.05;5.72;;;;;;;18.78;46.47;100658.28;21075174;28;20040;-60
2023/01/14 01:09:27;;;;;;;37.08;5.07;;;;;;;18.77;46.63;100650.22;21074820;28;20479;-60
2023/01/14 01:19:34;;;;;;;41.08;4.82;;;;;;;18.57;46.65;100586.41;21050637;28;20057;-62
2023/01/14 01:29:35;;;;;;;28.23;4.13;;;;;;;18.75;46.94;100600.63;21005783;28;20189;-62
2023/01/14 01:39:36;;;;;;;30.73;5.03;;;;;;;18.76;46.49;100645.78;21005364;28;20040;-60
2023/01/14 01:49:39;;;;;;;50.97;5.25;;;;;;;18.52;46.85;100565.06;21004949;28;20037;-62
2023/01/14 01:59:52;;;;;;;27.17;4.65;;;;;;;18.65;46.39;100619.97;21003417;28;20114;-61
2023/01/14 02:10:00;;;;;;;22.67;3.75;;;;;;;18.64;46.61;100629.38;21061660;28;20497;-61
2023/01/14 02:20:29;;;;;;;34.40;4.20;;;;;;;18.67;46.32;100637.16;21023100;28;20048;-61
2023/01/14 02:30:39;;;;;;;23.98;4.30;;;;;;;18.73;46.31;100629.69;21062451;28;20070;-62
2023/01/14 02:41:09;;;;;;;23.98;3.67;;;;;;;18.67;46.54;100609.44;21084567;28;20055;-62
2023/01/14 02:51:11;;;;;;;29.30;4.60;;;;;;;18.68;46.88;100610.25;21083242;28;20032;-61
2023/01/14 03:01:42;;;;;;;32.05;4.20;;;;;;;18.66;46.43;100652.13;21082382;28;20048;-62
2023/01/14 03:11:55;;;;;;;;;;;;;;;18.81;46.39;100631.13;21076104;28;20044;-61
2023/01/14 03:22:00;;;;;;;176.48;16.08;;;;;;;18.84;46.55;100608.41;21040213;28;19916;-62
2023/01/14 03:32:26;;;;;;;175.05;18.20;;;;;;;18.75;46.16;100633.88;21079763;28;20036;-61
2023/01/14 03:42:32;;;;;;;134.48;16.23;;;;;;;18.72;46.53;100617.78;20999102;28;20041;-61
2023/01/14 03:53:08;;;;;;;138.52;16.08;;;;;;;18.70;46.37;100608.09;20994067;28;20047;-61
2023/01/14 04:03:12;;;;;;;142.00;15.70;;;;;;;18.81;46.31;100620.03;20993549;28;20044;-60
2023/01/14 04:23:36;;;;;;;79.47;10.80;;;;;;;18.61;45.68;100566.19;20992578;28;20028;-60
2023/01/14 04:33:38;;;;;;;84.32;10.27;;;;;;;18.82;45.18;100605.06;20992766;28;20369;-60
2023/01/14 04:43:39;;;;;;;50.95;8.63;;;;;;;18.81;45.10;100625.56;20990861;28;20045;-60
2023/01/14 04:53:40;;;;;;;54.65;9.02;;;;;;;18.67;44.89;100600.28;20996038;28;20106;-60
2023/01/14 05:03:42;;;;;;;56.42;7.80;;;;;;;18.77;44.86;100603.94;21007768;28;20424;-60
2023/01/14 05:13:43;;;;;;;38.88;7.35;;;;;;;18.76;44.41;100601.44;21007092;28;20036;-61
2023/01/14 05:23:47;;;;;;;35.92;5.80;;;;;;;18.72;44.38;100615.00;21006944;28;20055;-62
2023/01/14 05:33:48;;;;;;;28.70;6.10;;;;;;;18.72;44.04;100617.78;21006075;28;20040;-60
2023/01/14 05:54:09;;;;;;;;;;;;;;;18.68;43.98;100633.25;21006294;28;20048;-60
2023/01/14 06:14:32;;;;;;;24.70;4.03;;;;;;;18.61;43.87;100641.00;21003993;28;20044;-62
2023/01/14 06:24:33;;;;;;;15.10;3.63;;;;;;;18.63;43.59;100663.72;21002140;28;20399;-61
2023/01/14 06:34:42;;;;;;;16.25;3.35;;;;;;;18.62;43.41;100677.88;21001336;28;20059;-62
2023/01/14 06:44:43;;;;;;;17.25;3.42;;;;;;;18.43;43.62;100658.13;21000424;28;20101;-61
2023/01/14 06:54:47;;;;;;;12.57;2.85;;;;;;;18.57;43.26;100714.72;21000427;28;20041;-61
2023/01/14 07:04:48;;;;;;;14.05;2.90;;;;;;;18.50;43.37;100741.81;20998796;28;20052;-61
2023/01/14 07:14:50;;;;;;;10.32;2.65;;;;;;;18.45;43.21;100758.44;20997909;28;20040;-61
2023/01/14 07:24:51;;;;;;;6.40;2.40;;;;;;;18.50;42.64;100750.97;20996858;28;20399;-61
2023/01/14 07:34:53;;;;;;;7.43;2.60;;;;;;;18.48;42.94;100768.97;20996285;28;20040;-61
2023/01/14 07:44:57;;;;;;;7.63;2.47;;;;;;;18.48;42.45;100744.03;20995872;28;20090;-60
2023/01/14 07:54:58;;;;;;;6.40;1.70;;;;;;;18.47;42.57;100761.78;20994890;28;20488;-60
2023/01/14 08:05:00;;;;;;;5.50;2.17;;;;;;;18.42;42.61;100758.97;20994384;28;20419;-61
2023/01/14 08:15:03;;;;;;;4.30;1.50;;;;;;;18.45;42.47;100772.28;20994424;28;20048;-60
2023/01/14 08:25:06;;;;;;;5.13;1.70;;;;;;;18.35;42.55;100747.28;20993526;28;20043;-60
2023/01/14 08:35:07;;;;;;;3.85;1.67;;;;;;;18.37;42.17;100758.94;20992606;28;20045;-60
2023/01/14 08:45:09;;;;;;;5.20;1.63;;;;;;;18.39;42.37;100774.19;20992413;28;20086;-60
2023/01/14 08:55:10;;;;;;;4.28;1.63;;;;;;;18.37;42.02;100772.78;20991934;28;20480;-59
2023/01/14 09:05:13;;;;;;;2.33;1.45;;;;;;;18.34;42.44;100762.25;20991870;28;20052;-60
2023/01/14 09:25:37;;;;;;;3.78;1.27;;;;;;;18.31;42.04;100783.00;20991105;28;20036;-61
2023/01/14 09:35:38;;;;;;;3.20;1.50;;;;;;;18.29;41.98;100785.22;20990498;28;20036;-61
2023/01/14 09:45:40;;;;;;;1.52;1.08;;;;;;;18.27;41.95;100787.41;21001239;28;20040;-61
2023/01/14 09:55:54;;;;;;;2.08;1.27;;;;;;;17.92;42.16;100749.22;21004226;28;20086;-61
2023/01/14 10:06:01;;;;;;;1.30;1.00;;;;;;;18.02;41.94;100763.13;21003779;28;20041;-61
2023/01/14 10:16:31;;;;;;;1.45;0.88;;;;;;;18.23;41.96;100798.16;21003015;28;20044;-61
2023/01/14 10:26:33;;;;;;;2.83;1.20;;;;;;;18.22;41.63;100790.97;21000725;28;20052;-61
2023/01/14 10:36:35;;;;;;;2.28;1.10;;;;;;;18.00;41.66;100776.41;21001052;28;20041;-61
2023/01/14 10:46:36;;;;;;;1.88;0.90;;;;;;;18.18;41.38;100795.38;21000249;28;20032;-61
2023/01/14 10:56:46;;;;;;;1.30;1.10;;;;;;;18.17;41.70;100799.25;20999310;28;20090;-61
2023/01/14 11:06:47;;;;;;;1.30;0.90;;;;;;;18.16;41.26;100813.38;20998711;28;20387;-61
2023/01/14 11:16:55;;;;;;;1.08;0.98;;;;;;;18.02;41.73;100796.38;20998025;28;20400;-61
2023/01/14 11:27:05;;;;;;;1.45;1.10;;;;;;;18.09;41.35;100813.56;20997055;28;20036;-61
2023/01/14 11:37:09;;;;;;;1.15;1.02;;;;;;;18.10;41.10;100831.88;20996267;28;20036;-61
2023/01/14 11:47:19;;;;;;;1.95;1.20;;;;;;;18.07;41.27;100831.56;20995674;28;20040;-61
2023/01/14 11:57:22;;;;;;;0.95;0.88;;;;;;;18.06;41.17;100836.28;20994496;28;20114;-61
2023/01/14 12:07:37;;;;;;;1.20;0.77;;;;;;;18.01;40.98;100858.38;20993592;28;20438;-61
2023/01/14 12:17:49;;;;;;;1.05;0.95;;;;;;;18.01;41.24;100888.84;20993743;28;20039;-61
2023/01/14 12:28:12;;;;;;;1.48;0.98;;;;;;;18.01;41.03;100897.97;20993614;28;20044;-60
2023/01/14 12:49:10;;;;;;;1.42;0.95;;;;;;;17.98;40.63;100933.66;20993225;28;20464;-61
2023/01/14 12:59:30;;;;;;;1.15;1.05;;;;;;;17.91;41.28;100952.41;20990423;28;20087;-61
2023/01/14 13:09:51;;;;;;;1.40;0.93;;;;;;;17.88;41.13;100961.25;20991570;28;20098;-62
2023/01/14 13:19:54;;;;;;;0.98;0.88;;;;;;;17.92;40.85;100963.22;21003651;28;20403;-62
2023/01/14 13:30:20;;;;;;;1.10;1.00;;;;;;;17.86;41.01;100966.19;21006641;28;20471;-60
2023/01/14 13:40:24;;;;;;;1.40;1.30;;;;;;;17.88;40.88;100983.38;21005496;28;20036;-59
2023/01/14 13:50:40;;;;;;;1.10;1.00;;;;;;;17.86;40.74;100991.09;21004891;28;20549;-61
2023/01/14 14:00:44;;;;;;;1.05;0.90;;;;;;;17.86;40.79;101032.63;21004161;28;20040;-60
2023/01/14 14:11:10;;;;;;;1.13;1.02;;;;;;;17.81;40.51;101051.94;21003416;28;20033;-60
2023/01/14 14:21:20;;;;;;;1.05;0.93;;;;;;;17.78;40.79;101062.44;21002497;28;20045;-62
2023/01/14 14:31:31;;;;;;;1.10;0.90;;;;;;;17.77;40.71;101077.34;21001201;28;20085;-61
2023/01/14 14:41:33;;;;;;;1.13;1.00;;;;;;;17.77;40.57;101087.59;21001096;28;20086;-61
2023/01/14 14:51:48;;;;;;;0.93;0.90;;;;;;;17.77;40.51;101099.50;21000261;28;20025;-60
2023/01/14 15:01:52;;;;;;;1.80;0.90;;;;;;;17.82;40.30;101122.81;20999088;28;20430;-61
2023/01/14 15:11:54;;;;;;;0.80;0.80;;;;;;;17.86;40.69;101107.38;20998613;28;20094;-60
2023/01/14 15:22:05;;;;;;;1.10;0.90;;;;;;;17.89;40.68;101115.16;20997855;28;20063;-61
2023/01/14 15:32:26;;;;;;;1.48;1.02;;;;;;;17.92;40.87;101112.72;20996879;28;20037;-60
2023/01/14 15:42:30;;;;;;;0.90;0.90;;;;;;;18.03;40.25;101114.53;20994654;28;20033;-60
2023/01/14 15:52:33;;;;;;;1.05;0.90;;;;;;;17.98;40.09;101116.41;20995175;28;20032;-60
2023/01/14 16:02:38;;;;;;;0.70;0.70;;;;;;;18.13;40.56;101133.19;20994509;28;20052;-60
2023/01/14 16:12:40;;;;;;;0.70;0.70;;;;;;;18.10;40.36;101085.78;20993844;28;20052;-60
2023/01/14 16:22:42;;;;;;;0.90;0.70;;;;;;;18.29;40.16;101078.84;20992763;28;20040;-61
2023/01/14 16:32:44;;;;;;;0.65;0.65;;;;;;;18.31;40.04;101081.34;20993300;28;20058;-61
2023/01/14 16:42:47;;;;;;;1.17;0.63;;;;;;;18.26;40.09;101059.97;20992116;28;20037;-61
2023/01/14 16:52:48;;;;;;;0.88;0.80;;;;;;;18.34;40.24;101075.28;21002298;28;20043;-61
2023/01/14 17:02:50;;;;;;;0.90;0.70;;;;;;;18.42;39.95;101083.16;21008657;28;20048;-61
2023/01/14 17:12:52;;;;;;;1.15;0.85;;;;;;;18.42;39.63;101100.59;21007718;28;20035;-60
2023/01/14 17:22:57;;;;;;;1.25;0.90;;;;;;;18.47;39.86;101088.75;21007240;28;20401;-60
2023/01/14 17:32:59;;;;;;;1.95;0.80;;;;;;;18.43;39.82;101069.03;21006353;28;20380;-60
2023/01/14 17:43:00;;;;;;;0.90;0.80;;;;;;;18.51;39.45;101056.66;21004775;28;20045;-60
2023/01/14 17:53:02;;;;;;;0.77;0.60;;;;;;;18.46;39.12;101001.16;21002745;28;20078;-60
2023/01/14 18:03:03;;;;;;;0.70;0.70;;;;;;;18.40;39.40;100988.34;21002102;28;20103;-60
2023/01/14 18:13:05;;;;;;;0.90;0.80;;;;;;;18.51;39.26;101023.38;21002357;28;20110;-60
2023/01/14 18:23:06;;;;;;;0.80;0.80;;;;;;;18.54;39.06;101032.00;21001732;28;20059;-60
2023/01/14 18:33:07;;;;;;;1.10;0.90;;;;;;;18.50;39.21;101074.34;21001507;28;20371;-61
2023/01/14 18:43:09;;;;;;;0.70;0.70;;;;;;;18.54;39.26;101081.88;21000213;28;20040;-61
2023/01/14 18:53:10;;;;;;;0.75;0.75;;;;;;;18.54;39.08;101079.09;20999580;28;20024;-61
2023/01/14 19:03:12;;;;;;;1.13;0.80;;;;;;;18.53;38.73;101071.06;20998406;28;20052;-61
2023/01/14 19:13:13;;;;;;;1.02;0.90;;;;;;;18.49;38.98;101051.34;20997689;28;20450;-60
2023/01/14 19:23:20;;;;;;;1.13;1.00;;;;;;;18.49;38.59;101072.69;20997068;28;20348;-61
2023/01/14 19:33:22;;;;;;;1.13;0.90;;;;;;;18.48;38.50;101066.31;20996484;28;20480;-60
2023/01/14 19:43:23;;;;;;;0.90;0.90;;;;;;;18.41;38.44;101053.75;20995800;28;20040;-60
2023/01/14 19:53:24;;;;;;;0.90;0.82;;;;;;;18.45;38.59;101071.53;20994722;28;20013;-61
2023/01/14 20:03:26;;;;;;;1.20;1.00;;;;;;;18.43;38.65;101101.44;20994188;28;20036;-61
2023/01/14 20:13:27;;;;;;;1.08;0.95;;;;;;;18.41;38.79;101114.69;20993789;28;20031;-60
2023/01/14 20:23:32;;;;;;;1.02;0.80;;;;;;;18.40;38.74;101118.56;20992854;28;20040;-61
2023/01/14 20:33:34;;;;;;;1.50;1.10;;;;;;;18.36;38.66;101114.66;20993012;28;20113;-61
2023/01/14 20:43:36;;;;;;;1.30;1.08;;;;;;;18.35;38.59;101104.66;20992531;28;20036;-61
2023/01/14 20:53:38;;;;;;;1.10;1.00;;;;;;;18.33;38.33;101123.50;20992081;28;20041;-60
2023/01/14 21:03:43;;;;;;;1.33;0.90;;;;;;;18.31;38.54;101131.22;20991376;28;20052;-59
2023/01/14 21:24:12;;;;;;;1.27;1.13;;;;;;;18.26;38.34;101162.47;20991548;28;20036;-60
2023/01/14 21:34:16;;;;;;;1.00;0.90;;;;;;;18.18;38.06;101160.97;20990650;28;20201;-60
2023/01/14 21:44:18;;;;;;;1.17;0.88;;;;;;;18.20;38.46;101169.03;21005099;28;20079;-61
2023/01/14 21:54:19;;;;;;;0.73;0.70;;;;;;;18.17;38.12;101142.69;21004268;28;20479;-60
2023/01/14 22:04:24;;;;;;;0.95;0.90;;;;;;;18.17;38.46;101178.69;21003444;28;20037;-62
2023/01/14 22:14:29;;;;;;;1.25;0.90;;;;;;;18.15;38.10;101183.66;21002752;28;20094;-62
2023/01/14 22:24:32;;;;;;;1.13;1.00;;;;;;;18.12;38.42;101200.78;21001900;28;20039;-61
2023/01/14 22:34:33;;;;;;;1.00;0.90;;;;;;;18.09;38.12;101204.03;21001584;28;20114;-61
2023/01/14 22:44:37;;;;;;;1.10;1.00;;;;;;;17.91;38.32;101193.25;21000644;28;20051;-61
2023/01/14 22:54:41;;;;;;;0.77;0.70;;;;;;;18.02;38.03;101203.41;20999468;28;20471;-61
2023/01/14 23:04:43;;;;;;;0.98;0.98;;;;;;;18.03;38.34;101230.00;20998996;28;20460;-60
2023/01/14 23:14:44;;;;;;;1.63;0.80;;;;;;;17.90;37.98;101219.28;20997732;28;20161;-61
2023/01/14 23:24:45;;;;;;;0.82;0.82;;;;;;;17.88;38.30;101238.09;20997033;28;20052;-61
2023/01/14 23:34:47;;;;;;;1.10;0.95;;;;;;;17.92;38.08;101217.13;20996748;28;20066;-60
2023/01/14 23:44:48;;;;;;;1.90;0.90;;;;;;;17.95;38.34;101222.13;20995846;28;20040;-60
2023/01/14 23:54:50;;;;;;;0.95;0.93;;;;;;;17.91;38.14;101220.94;20995021;28;20040;-60
